Terminal Aerodrome Forecast
Issued by NWS St Louis, MO

Home | Current Version | Previous Version | Text Only | Print | Product List | Glossary On
Versions: 1 2 3 4 5 6 7 8 9 10 11 12 13 14 15 16 17 18 19 20
000
FTUS43 KLSX 261500 AAA
TAFCOU
TAF AMD
KCOU 261523Z 2615/2712 25005KT P6SM SCT250
      TEMPO 2616/2617 34008KT P6SM BKN009
     FM262100 33005KT P6SM SCT050 SCT250
     FM270000 VRB05KT P6SM SCT250=

USA.gov is the U.S. government's official web portal to all federal, state and local government web resources and services.